Flight Track Log - Related Links

Times and Time Zones

All times are in EDT time to prevent confusion due to time zone crossing. See the RPA3228 flight status page for this flight to view local times or setup timezone preferences in your user account.

Time Position Orientation Groundspeed Altitude Reporting Facility
EDT Latitude Longitude Course Direction KTS MPH feet Rate Location/Type
Sun 08:02:00 AM 33.2932 -79.9180 North  Level FlightAware Approximate
Sun 08:02:43 AM 32.8856 -79.8475 43° Northeast 300 345 6,900  Level Jacksonville Center
Sun 08:03:00 AM 33.3930 -79.8781 North  Level FlightAware Approximate
Sun 08:03:43 AM 32.9650 -79.8522 357° North 269 310 9,400  Level Jacksonville Center
Sun 08:04:00 AM 33.4968 -79.8533 13° North  Level FlightAware Approximate
Sun 08:04:43 AM 33.0486 -79.8617 355° North 286 329 11,800  Level Jacksonville Center
Sun 08:05:00 AM 33.5998 -79.8239 13° North  Level FlightAware Approximate
Sun 08:05:43 AM 33.1344 -79.8714 355° North 293 337 13,000  Level Jacksonville Center
Sun 08:06:00 AM 33.7033 -79.8000 North  Level FlightAware Approximate
Sun 08:06:43 AM 33.2328 -79.8803 356° North 325 374 14,600  Level Jacksonville Center
Sun 08:07:00 AM 33.8050 -79.7669 17° North  Level FlightAware Approximate
Sun 08:07:43 AM 33.3328 -79.8694 North 342 394 16,500  Level Jacksonville Center
Sun 08:08:00 AM 33.8874 -79.6955 43° Northeast  Level FlightAware Approximate
Sun 08:08:43 AM 33.4231 -79.8067 30° Northeast 350 403 17,800  Level Jacksonville Center
Sun 08:09:43 AM 33.5117 -79.7589 24° Northeast 377 434 19,200 1,450 Climbing Jacksonville Center
Sun 08:10:43 AM 33.6336 -79.7119 18° North 383 441 20,700 1,350 Climbing Jacksonville Center
Sun 08:11:43 AM 33.7389 -79.6683 19° North 388 447 21,900 1,400 Climbing Jacksonville Center
Sun 08:12:43 AM 33.8419 -79.6244 19° North 393 452 23,500 1,550 Climbing Jacksonville Center
Sun 08:13:43 AM 33.9342 -79.5511 33° Northeast 388 447 25,000 1,306 Climbing Jacksonville Center
Sun 08:15:33 AM 34.0878 -79.4183 36° Northeast 369 425 27,200 1,257 Climbing Washington Center
Sun 08:16:30 AM 34.1778 -79.3397 36° Northeast 388 447 28,500 1,361 Climbing Washington Center
Sun 08:17:32 AM 34.2783 -79.2611 33° Northeast 398 458 29,900 1,230 Climbing Washington Center
Sun 08:18:32 AM 34.3761 -79.2003 27° Northeast 403 464 31,000 545 Climbing Washington Center
Sun 08:19:33 AM 34.4844 -79.1394 25° Northeast 408 470 31,000  Level Washington Center
Sun 08:20:31 AM 34.5969 -79.0736 26° Northeast 426 490 31,000  Level Washington Center
Sun 08:21:32 AM 34.7114 -79.0103 24° Northeast 437 503 31,000  Level Washington Center
Sun 08:22:33 AM 34.8217 -78.9417 27° Northeast 437 503 31,000  Level Washington Center
Sun 08:23:31 AM 34.9342 -78.8781 25° Northeast 437 503 31,000  Level Washington Center
Sun 08:24:32 AM 35.0464 -78.8139 25° Northeast 437 503 31,000  Level Washington Center
Sun 08:25:32 AM 35.1567 -78.7472 26° Northeast 437 503 31,000  Level Washington Center
Sun 08:26:33 AM 35.2669 -78.6828 26° Northeast 432 497 31,000  Level Washington Center
Sun 08:27:31 AM 35.3792 -78.6183 25° Northeast 432 497 31,000  Level Washington Center
Sun 08:28:31 AM 35.4789 -78.5558 27° Northeast 437 503 31,000  Level Washington Center
Sun 08:29:32 AM 35.6017 -78.4811 26° Northeast 437 503 31,000  Level Washington Center
Sun 08:30:32 AM 35.7075 -78.4211 25° Northeast 448 516 31,000  Level Washington Center
Sun 08:31:30 AM 35.8175 -78.3558 26° Northeast 448 516 31,000  Level Washington Center
Sun 08:32:31 AM 35.9294 -78.2906 25° Northeast 448 516 31,000  Level Washington Center
Sun 08:33:31 AM 36.0417 -78.2225 26° Northeast 443 510 31,000  Level Washington Center
Sun 08:34:33 AM 36.1558 -78.1542 26° Northeast 443 510 31,000 -1,160 Level Washington Center
Sun 08:35:30 AM 36.2658 -78.0856 27° Northeast 443 510 28,700 -2,034 Descending Washington Center
Sun 08:36:31 AM 36.3756 -78.0194 26° Northeast 443 510 27,000 -836 Descending Washington Center
Sun 08:37:32 AM 36.4939 -77.9483 26° Northeast 430 495 27,000 -545 Level Washington Center
Sun 08:38:32 AM 36.6058 -77.8792 26° Northeast 430 495 25,900 -1,400 Descending Washington Center
Sun 08:39:32 AM 36.7133 -77.8125 26° Northeast 430 495 24,200 -1,636 Descending Washington Center
Sun 08:40:33 AM 36.8169 -77.7478 27° Northeast 425 489 22,600 -1,109 Descending Washington Center
Sun 08:41:31 AM 36.9203 -77.6833 26° Northeast 420 483 22,000 -305 Descending Washington Center
Sun 08:42:31 AM 37.0256 -77.6236 24° Northeast 414 476 22,000  Level Washington Center
Sun 08:43:32 AM 37.1347 -77.5769 19° North 409 471 22,000  Level Washington Center
Sun 08:44:30 AM 37.2417 -77.5433 14° North 404 465 22,000  Level Washington Center
Sun 08:45:31 AM 37.3531 -77.5017 17° North 404 465 22,000  Level Washington Center
Sun 08:46:32 AM 37.4619 -77.4625 16° North 404 465 22,000  Level Washington Center
Sun 08:47:32 AM 37.5692 -77.4233 16° North 404 465 22,000  Level Washington Center
Sun 08:48:33 AM 37.6803 -77.3839 16° North 404 465 22,000 -605 Level Washington Center
Sun 08:49:31 AM 37.7850 -77.3444 17° North 404 465 20,800 -1,780 Descending Washington Center
Sun 08:50:31 AM 37.8919 -77.3047 16° North 404 465 18,500 -2,150 Descending Washington Center
Sun 08:51:31 AM 37.9906 -77.2675 17° North 394 453 16,500 -2,164 Descending Washington Center
Sun 08:52:33 AM 38.0889 -77.2353 14° North 380 437 14,100 -2,213 Descending Washington Center
Sun 08:53:33 AM 38.1875 -77.2006 15° North 366 421 12,000 -2,103 Descending Washington Center
Sun 08:54:30 AM 38.2819 -77.1575 20° North 366 421 10,000 -1,169 Descending Washington Center
Sun 08:55:31 AM 38.3494 -77.1008 33° Northeast 326 375 9,700 -689 Descending Washington Center
Sun 08:56:32 AM 38.4064 -77.0436 38° Northeast 287 330 8,600 -1,388 Descending Washington Center
Sun 08:57:32 AM 38.4672 -77.0025 28° Northeast 261 300 6,900 -1,537 Descending Washington Center
Sun 08:58:33 AM 38.5361 -77.0089 356° North 236 272 5,500 -1,339 Descending Washington Center
Sun 08:59:33 AM 38.6006 -77.0156 355° North 236 272 4,200 -915 Descending Washington Center
Sun 09:00:31 AM 38.6547 -77.0219 355° North 225 259 3,700 -706 Descending Washington Center
Sun 09:01:32 AM 38.7067 -77.0256 357° North 201 231 2,800 -885 Descending Washington Center

Login

Don't have an account? Register now (free) for customized features, flight alerts, and more!